Página principal
METAR-TAF:

METAR-TAF

Aeroportos :

Armilla

Granada, Espanha

latitude: 37-08N, longitude: 003-38-08W, altura: 700 m

Observação actual do tempo

O boletim foi feito há 5 horas e 33 minutos, às 13:00 UTC
Vento 9 kt de sul, variando entre sudeste e su-sudoeste
Temperatura 33°C
Humidade 20%
Pressão 1020 hPa
Visibilidade 10 km ou mais
sem nuvens abaixo de 1500 metros e sem cumulonimbus

METAR: LEGA 191300Z 18009KT 130V210 CAVOK 33/07 Q1020

Hora: 20:33 (18:33 UTC)

Previsão

O boletim foi feito há 7 horas e 33 minutos, às 11:00 UTC
Previsão válida de 19 às 12 UTC a 20 às 12 UTC
Vento 10 kt de sul
Visibilidade 10 km ou mais
sem nuvens abaixo de 1500 metros e sem cumulonimbus
Tornando-se
de 19 às 21 UTC a 19 às 23 UTC
Vento 2 kt com direcção variável
Tornando-se
de 20 às 10 UTC a 20 às 12 UTC
Vento 10 kt de sul

TAF: LEGA 191100Z 1912/2012 18010KT CAVOK TX34/1915Z TN16/2005Z BECMG 1921/1923 VRB02KT BECMG 2010/2012 18010KT

Observações e previsões do tempo de mais de 4000 aeroportos (mensagens METAR e TAF).

As estações disponíveis são os pontos amarelos e vermelhos sobre o mapa.

Mova o rato sobre o mapa para ver o nome da estação.

Depois clique no ponto para visualizar as observações e previsões meteorológicas.

Para alterar o mapa : clique nos botões verdes com uma cruz preta para aumentar o zoom; no botão verde com uma pitada de zoom; ou nas setas verdes para mapas adjacentes.


METAR-TAF: